Time;durP1;ratioP1;P1;durP2;ratioP2;P2;SDS_P1;SDS_P2;PMS_P1;PMS_P2;Temp;Humidity;BMP_temperature;BMP_pressure;BME280_temperature;BME280_humidity;BME280_pressure;Samples;Min_cycle;Max_cycle;Signal;HPM_P1;HPM_P2
2023/03/18 00:01:58;;;;;;;10.85;4.28;;;28.70;99.90;;;;;;5026320;28;20025;-61
2023/03/18 00:04:26;;;;;;;9.68;4.22;;;28.80;99.90;;;;;;5024759;28;20480;-61
2023/03/18 00:06:53;;;;;;;13.30;4.60;;;29.10;99.90;;;;;;5026523;28;20060;-60
2023/03/18 00:09:21;;;;;;;14.10;5.63;;;29.10;99.90;;;;;;5029078;28;20021;-60
2023/03/18 00:11:49;;;;;;;13.55;6.15;;;29.10;99.90;;;;;;5028982;28;20040;-60
2023/03/18 00:14:16;;;;;;;16.27;5.53;;;29.20;99.90;;;;;;5027544;28;20022;-60
2023/03/18 00:16:43;;;;;;;15.65;4.63;;;29.30;99.90;;;;;;5026429;28;20486;-60
2023/03/18 00:19:11;;;;;;;9.98;4.50;;;29.40;99.90;;;;;;5031712;28;20029;-60
2023/03/18 00:21:39;;;;;;;18.02;5.68;;;29.50;99.90;;;;;;5032698;28;20060;-60
2023/03/18 00:24:06;;;;;;;13.00;4.38;;;29.60;99.90;;;;;;5032747;28;20403;-60
2023/03/18 00:26:35;;;;;;;10.07;4.47;;;29.70;99.90;;;;;;5031225;28;20143;-60
2023/03/18 00:29:03;;;;;;;11.98;4.47;;;29.90;99.90;;;;;;5030726;28;20025;-61
2023/03/18 00:31:31;;;;;;;14.77;4.78;;;29.90;99.90;;;;;;5030706;28;20037;-61
2023/03/18 00:33:59;;;;;;;10.50;4.03;;;30.00;99.90;;;;;;5031080;28;20013;-61
2023/03/18 00:36:27;;;;;;;10.52;4.03;;;30.20;99.90;;;;;;5028249;28;20036;-61
2023/03/18 00:38:56;;;;;;;7.90;3.70;;;30.20;99.90;;;;;;5029787;28;20025;-65
2023/03/18 00:41:27;;;;;;;16.92;4.88;;;30.10;99.90;;;;;;5028780;28;20429;-60
2023/03/18 00:43:55;;;;;;;11.75;4.32;;;29.90;99.90;;;;;;5028872;28;20021;-60
2023/03/18 00:46:24;;;;;;;9.52;3.97;;;29.60;99.90;;;;;;5030071;28;20635;-62
2023/03/18 00:49:05;;;;;;;10.18;3.75;;;29.70;99.90;;;;;;5030731;28;20028;-60
2023/03/18 00:51:36;;;;;;;11.43;3.58;;;29.90;99.90;;;;;;5029198;28;20029;-62
2023/03/18 00:54:06;;;;;;;7.00;3.45;;;30.10;99.90;;;;;;5028952;28;20033;-61
2023/03/18 00:56:38;;;;;;;7.45;3.20;;;30.10;99.90;;;;;;5027141;28;20036;-61
2023/03/18 00:59:07;;;;;;;7.97;3.30;;;30.10;99.90;;;;;;5028358;28;20029;-60
2023/03/18 01:01:36;;;;;;;7.53;3.50;;;30.40;99.90;;;;;;5029146;28;20038;-61
2023/03/18 01:04:03;;;;;;;6.95;2.83;;;30.20;99.90;;;;;;5029563;28;20029;-60
2023/03/18 01:06:34;;;;;;;12.88;3.75;;;30.40;99.90;;;;;;5028298;28;20123;-59
2023/03/18 01:09:04;;;;;;;11.95;3.80;;;30.50;99.30;;;;;;5029594;28;20022;-60
2023/03/18 01:11:32;;;;;;;9.32;3.30;;;30.60;99.90;;;;;;5029790;28;20584;-59
2023/03/18 01:13:59;;;;;;;8.30;3.47;;;30.70;99.90;;;;;;5030405;28;20055;-61
2023/03/18 01:16:28;;;;;;;10.13;3.75;;;31.00;99.90;;;;;;5031168;28;20093;-60
2023/03/18 01:18:57;;;;;;;11.23;4.45;;;30.80;99.60;;;;;;5028050;28;20022;-60
2023/03/18 01:21:24;;;;;;;6.03;3.30;;;30.80;99.00;;;;;;5030207;28;20025;-62
2023/03/18 01:23:52;;;;;;;7.38;3.83;;;30.90;99.90;;;;;;5030142;28;20018;-60
2023/03/18 01:26:19;;;;;;;10.32;3.53;;;31.00;99.90;;;;;;5029905;28;20033;-60
2023/03/18 01:28:47;;;;;;;12.40;3.47;;;31.20;99.40;;;;;;5030141;28;20033;-61
2023/03/18 01:31:15;;;;;;;13.68;3.78;;;31.40;97.20;;;;;;5028158;28;20053;-60
2023/03/18 01:33:42;;;;;;;9.88;4.25;;;31.60;98.10;;;;;;5027098;28;20120;-60
2023/03/18 01:36:10;;;;;;;11.50;4.53;;;31.70;99.30;;;;;;5028872;28;20025;-59
2023/03/18 01:38:39;;;;;;;10.13;5.13;;;31.70;98.40;;;;;;5026504;28;20029;-60
2023/03/18 01:41:07;;;;;;;13.85;4.10;;;31.80;97.00;;;;;;5027118;28;20029;-59
2023/03/18 01:43:38;;;;;;;11.82;4.82;;;31.90;96.60;;;;;;5029588;28;20083;-60
2023/03/18 01:46:31;;;;;;;11.95;4.78;;;32.00;97.70;;;;;;5028363;28;20021;-59
2023/03/18 01:49:01;;;;;;;11.63;3.92;;;32.10;97.10;;;;;;5027419;28;20564;-61
2023/03/18 01:51:29;;;;;;;10.48;3.83;;;32.00;93.30;;;;;;5029764;28;20041;-62
2023/03/18 01:54:02;;;;;;;7.63;3.63;;;31.90;96.30;;;;;;5028962;28;20075;-62
2023/03/18 01:56:29;;;;;;;11.10;4.38;;;32.00;93.90;;;;;;5030453;28;20478;-63
2023/03/18 01:58:59;;;;;;;14.90;5.85;;;31.80;93.00;;;;;;5027192;28;20034;-64
2023/03/18 02:01:47;;;;;;;13.70;5.15;;;31.60;91.00;;;;;;5028801;28;20053;-66
2023/03/18 02:04:16;;;;;;;9.85;3.53;;;31.40;92.90;;;;;;5028823;28;20033;-63
2023/03/18 02:06:44;;;;;;;10.07;4.28;;;31.50;95.00;;;;;;5029067;28;20195;-61
2023/03/18 02:09:12;;;;;;;11.52;2.50;;;31.70;92.30;;;;;;5029117;28;20037;-61
2023/03/18 02:11:43;;;;;;;5.90;2.33;;;31.80;91.40;;;;;;5028465;28;20030;-62
2023/03/18 02:14:14;;;;;;;6.53;2.67;;;31.90;90.00;;;;;;5028609;28;20021;-63
2023/03/18 02:16:59;;;;;;;9.98;2.90;;;31.80;90.30;;;;;;5029912;28;20079;-58
2023/03/18 02:19:51;;;;;;;7.18;2.78;;;32.20;91.80;;;;;;5030319;28;20522;-58
2023/03/18 02:22:25;;;;;;;6.18;2.20;;;32.40;88.40;;;;;;5029442;28;20394;-58
2023/03/18 02:24:54;;;;;;;;;;;32.10;87.60;;;;;;5030854;28;20490;-58
2023/03/18 02:27:35;;;;;;;9.15;2.83;;;32.00;88.10;;;;;;5030080;28;19927;-58
2023/03/18 02:30:25;;;;;;;7.65;2.92;;;31.90;91.50;;;;;;5029152;28;20040;-58
2023/03/18 02:32:54;;;;;;;5.32;1.83;;;32.10;87.80;;;;;;5027304;28;20036;-58
2023/03/18 02:35:22;;;;;;;3.78;1.70;;;32.40;82.80;;;;;;5029567;28;20441;-57
2023/03/18 02:37:49;;;;;;;5.82;1.65;;;32.60;83.20;;;;;;5029824;28;20017;-57
2023/03/18 02:40:23;;;;;;;6.35;2.13;;;32.80;79.50;;;;;;5029503;28;20033;-57
2023/03/18 02:42:51;;;;;;;3.45;1.60;;;32.70;78.90;;;;;;5030515;28;20033;-57
2023/03/18 02:45:59;;;;;;;4.13;2.13;;;32.60;77.70;;;;;;5025256;28;20067;-62
2023/03/18 02:48:32;;;;;;;5.82;1.70;;;32.60;75.20;;;;;;4991689;28;20057;-64
2023/03/18 02:51:00;;;;;;;6.35;1.75;;;32.40;74.40;;;;;;5028534;28;20112;-62
2023/03/18 02:53:27;;;;;;;5.47;1.60;;;32.50;76.80;;;;;;5026087;28;20032;-60
2023/03/18 02:55:55;;;;;;;7.28;1.90;;;32.80;77.90;;;;;;5026854;28;20057;-60
2023/03/18 02:58:22;;;;;;;7.15;1.45;;;33.00;76.50;;;;;;5028938;28;20017;-59
2023/03/18 03:00:50;;;;;;;4.07;1.67;;;33.20;70.30;;;;;;5027713;28;20068;-61
2023/03/18 03:03:18;;;;;;;4.45;1.63;;;33.00;68.80;;;;;;5025997;28;20093;-59
2023/03/18 03:05:45;;;;;;;5.18;1.70;;;33.10;72.90;;;;;;5027185;28;20546;-60
2023/03/18 03:08:14;;;;;;;5.65;1.92;;;33.30;70.60;;;;;;5026195;28;20040;-61
2023/03/18 03:10:42;;;;;;;3.28;1.55;;;33.30;68.10;;;;;;5027887;28;20049;-63
2023/03/18 03:13:10;;;;;;;2.25;1.00;;;33.40;66.70;;;;;;5029375;28;20048;-60
2023/03/18 03:15:39;;;;;;;4.60;1.40;;;33.70;61.00;;;;;;5028451;28;20104;-60
2023/03/18 03:18:08;;;;;;;7.15;1.35;;;33.90;67.00;;;;;;5025530;28;20094;-60
2023/03/18 03:20:37;;;;;;;3.95;1.52;;;34.10;63.60;;;;;;5026507;28;20074;-60
2023/03/18 03:23:11;;;;;;;3.85;1.40;;;34.20;68.30;;;;;;5018704;28;21650;-60
2023/03/18 03:25:38;;;;;;;;;;;34.30;61.90;;;;;;5016813;28;20033;-60
2023/03/18 03:28:07;;;;;;;6.45;1.42;;;34.30;60.40;;;;;;5025762;28;19917;-60
2023/03/18 03:30:35;;;;;;;4.15;1.40;;;34.20;60.40;;;;;;5024945;28;20432;-61
2023/03/18 03:33:03;;;;;;;4.35;1.23;;;34.10;59.30;;;;;;5024637;28;20025;-61
2023/03/18 03:35:31;;;;;;;4.03;1.70;;;33.90;57.70;;;;;;5026518;28;20056;-61
2023/03/18 03:37:59;;;;;;;7.15;1.73;;;33.90;60.50;;;;;;5026888;28;20036;-59
2023/03/18 03:40:27;;;;;;;2.90;1.38;;;33.90;58.40;;;;;;5026217;28;20156;-60
2023/03/18 03:42:54;;;;;;;6.60;2.70;;;34.00;57.10;;;;;;5023038;28;20029;-62
2023/03/18 03:45:22;;;;;;;7.00;1.80;;;34.10;60.90;;;;;;5025007;28;20763;-61
2023/03/18 03:47:50;;;;;;;6.97;1.73;;;34.30;58.30;;;;;;5024507;28;20509;-61
2023/03/18 03:50:17;;;;;;;7.00;1.48;;;34.10;56.20;;;;;;5026228;28;20029;-60
2023/03/18 03:52:46;;;;;;;3.55;1.63;;;34.20;56.80;;;;;;5024090;28;20036;-59
2023/03/18 03:55:17;;;;;;;4.22;1.13;;;34.30;53.60;;;;;;5031684;28;20087;-59
2023/03/18 03:57:45;;;;;;;3.85;1.33;;;34.10;51.80;;;;;;5029736;28;20136;-60
2023/03/18 04:00:17;;;;;;;4.25;1.20;;;34.00;54.00;;;;;;5027172;28;20398;-62
2023/03/18 04:02:46;;;;;;;4.40;1.20;;;34.00;56.10;;;;;;5029612;28;20064;-60
2023/03/18 04:05:16;;;;;;;4.07;1.30;;;34.10;57.50;;;;;;5028182;28;20082;-60
2023/03/18 04:07:44;;;;;;;5.90;1.80;;;34.40;57.40;;;;;;5029507;28;20044;-60
2023/03/18 04:10:15;;;;;;;3.67;1.40;;;34.60;57.00;;;;;;5027708;28;20041;-60
2023/03/18 04:12:44;;;;;;;2.60;1.27;;;34.70;56.40;;;;;;5030689;28;20033;-62
2023/03/18 04:15:13;;;;;;;6.30;1.48;;;34.80;54.10;;;;;;5016676;28;20029;-62
2023/03/18 04:17:41;;;;;;;3.53;1.38;;;34.70;56.50;;;;;;5028619;28;20042;-61
2023/03/18 04:20:09;;;;;;;4.20;1.40;;;34.50;56.40;;;;;;5030162;28;20052;-61
2023/03/18 04:22:37;;;;;;;4.47;1.30;;;34.30;58.70;;;;;;5029233;28;20029;-61
2023/03/18 04:25:05;;;;;;;3.55;1.60;;;34.30;57.80;;;;;;5028467;28;20034;-60
2023/03/18 04:27:33;;;;;;;2.58;1.20;;;34.50;57.60;;;;;;5028975;28;20080;-63
2023/03/18 04:30:00;;;;;;;2.88;1.30;;;34.40;56.20;;;;;;5032858;28;20455;-59
2023/03/18 04:32:28;;;;;;;4.18;1.73;;;34.30;54.90;;;;;;5029655;28;20545;-60
2023/03/18 04:34:56;;;;;;;2.83;1.40;;;34.20;55.00;;;;;;5032047;28;20032;-60
2023/03/18 04:37:24;;;;;;;3.45;1.60;;;34.10;56.40;;;;;;5029802;28;20060;-60
2023/03/18 04:39:51;;;;;;;3.13;1.10;;;34.10;54.70;;;;;;5031038;28;20028;-62
2023/03/18 04:42:18;;;;;;;5.53;1.67;;;34.20;56.10;;;;;;5030244;28;20028;-60
2023/03/18 04:44:46;;;;;;;4.78;1.55;;;34.30;54.00;;;;;;5030883;28;20032;-60
2023/03/18 04:47:14;;;;;;;2.45;0.95;;;34.40;54.40;;;;;;5031008;28;20033;-60
2023/03/18 04:49:41;;;;;;;5.20;1.40;;;34.40;53.40;;;;;;5031352;28;20017;-59
2023/03/18 04:52:09;;;;;;;2.65;1.10;;;34.30;53.20;;;;;;5031384;28;20030;-57
2023/03/18 04:54:37;;;;;;;5.43;1.48;;;34.40;54.50;;;;;;5030464;28;20506;-59
2023/03/18 04:57:06;;;;;;;6.22;1.48;;;34.60;53.10;;;;;;5031848;28;20045;-59
2023/03/18 04:59:34;;;;;;;5.80;1.20;;;34.40;52.10;;;;;;5030549;28;20402;-58
2023/03/18 05:02:01;;;;;;;3.13;1.52;;;34.30;52.60;;;;;;5030736;28;20025;-59
2023/03/18 05:04:28;;;;;;;4.60;1.42;;;34.20;51.80;;;;;;5030234;28;20029;-59
2023/03/18 05:06:57;;;;;;;4.43;1.50;;;34.20;53.50;;;;;;5029756;28;20536;-59
2023/03/18 05:09:24;;;;;;;2.75;1.33;;;34.20;53.40;;;;;;5025794;28;20057;-58
2023/03/18 05:11:52;;;;;;;4.78;1.90;;;34.30;54.20;;;;;;5020600;28;20033;-58
2023/03/18 05:14:19;;;;;;;5.55;1.73;;;34.40;54.10;;;;;;5028891;28;20041;-58
2023/03/18 05:16:47;;;;;;;3.10;1.40;;;34.40;53.30;;;;;;5025835;28;20086;-58
2023/03/18 05:19:15;;;;;;;3.60;1.40;;;34.30;53.00;;;;;;5027159;28;20097;-58
2023/03/18 05:21:43;;;;;;;3.13;1.10;;;34.30;53.30;;;;;;5030099;28;20091;-59
2023/03/18 05:24:10;;;;;;;2.63;1.25;;;34.20;53.20;;;;;;5030889;28;20060;-58
2023/03/18 05:26:38;;;;;;;1.92;1.20;;;34.20;52.10;;;;;;5030343;28;20037;-58
2023/03/18 05:29:05;;;;;;;2.80;1.35;;;34.20;51.70;;;;;;5030489;28;20029;-58
2023/03/18 05:31:33;;;;;;;1.90;1.10;;;34.20;51.50;;;;;;5029262;28;20434;-60
2023/03/18 05:34:00;;;;;;;3.67;1.50;;;34.10;52.40;;;;;;5030634;28;20111;-59
2023/03/18 05:36:28;;;;;;;3.05;1.27;;;34.10;52.40;;;;;;5030088;28;20026;-59
2023/03/18 05:38:56;;;;;;;2.83;1.55;;;34.00;52.10;;;;;;5030176;28;20079;-58
2023/03/18 05:41:23;;;;;;;8.07;1.70;;;34.00;52.40;;;;;;5030390;28;20056;-59
2023/03/18 05:43:51;;;;;;;3.15;1.95;;;33.90;52.20;;;;;;5030165;28;20029;-58
2023/03/18 05:46:18;;;;;;;5.30;1.40;;;33.80;52.40;;;;;;5030303;28;20060;-59
2023/03/18 05:48:46;;;;;;;2.63;1.20;;;33.80;52.90;;;;;;5028430;28;20647;-58
2023/03/18 05:51:13;;;;;;;4.03;1.52;;;33.80;52.80;;;;;;5030464;28;20021;-58
2023/03/18 05:53:41;;;;;;;5.93;2.50;;;33.70;53.50;;;;;;5030425;28;20136;-60
2023/03/18 05:56:09;;;;;;;4.57;2.88;;;33.80;62.40;;;;;;5030108;28;20021;-59
2023/03/18 05:58:37;;;;;;;7.07;2.83;;;33.70;64.80;;;;;;5022777;28;20021;-59
2023/03/18 06:01:04;;;;;;;6.78;3.40;;;33.70;66.00;;;;;;5030342;28;20037;-59
2023/03/18 06:03:33;;;;;;;11.27;3.40;;;33.50;68.70;;;;;;5030645;28;20613;-58
2023/03/18 06:06:01;;;;;;;8.02;3.00;;;33.40;69.70;;;;;;5030242;28;20048;-58
2023/03/18 06:08:29;;;;;;;11.23;3.40;;;33.30;70.60;;;;;;5026577;28;20116;-58
2023/03/18 06:10:57;;;;;;;5.68;3.45;;;33.30;71.80;;;;;;5028860;28;20164;-58
2023/03/18 06:13:24;;;;;;;7.97;3.60;;;33.10;73.10;;;;;;5029233;28;20037;-58
2023/03/18 06:15:57;;;;;;;6.97;3.53;;;32.90;73.60;;;;;;5033338;28;20036;-58
2023/03/18 06:18:25;;;;;;;7.65;3.60;;;32.70;75.60;;;;;;5030194;28;20041;-59
2023/03/18 06:20:53;;;;;;;8.15;3.72;;;32.70;77.10;;;;;;5028348;28;20486;-58
2023/03/18 06:23:21;;;;;;;7.22;3.40;;;32.50;78.40;;;;;;5028916;28;20025;-58
2023/03/18 06:25:49;;;;;;;7.40;3.28;;;32.30;79.80;;;;;;5030009;28;20025;-57
2023/03/18 06:28:17;;;;;;;11.20;3.60;;;32.10;81.50;;;;;;5029394;28;20033;-58
2023/03/18 06:30:45;;;;;;;8.35;3.97;;;32.00;83.00;;;;;;5029205;28;20478;-59
2023/03/18 06:33:14;;;;;;;7.93;3.42;;;32.00;83.40;;;;;;5029675;28;20029;-59
2023/03/18 06:35:41;;;;;;;8.32;3.60;;;32.00;83.80;;;;;;5028330;28;20164;-58
2023/03/18 06:38:13;;;;;;;11.30;3.53;;;32.00;84.20;;;;;;5028513;28;20033;-59
2023/03/18 06:40:40;;;;;;;10.63;3.95;;;31.90;87.90;;;;;;5024439;28;20040;-58
2023/03/18 06:43:08;;;;;;;9.85;3.78;;;31.80;91.30;;;;;;5028427;28;20025;-58
2023/03/18 06:45:35;;;;;;;9.68;4.18;;;31.60;93.40;;;;;;5029448;28;20053;-60
2023/03/18 06:48:03;;;;;;;10.77;4.20;;;31.30;95.00;;;;;;5018165;28;20179;-57
2023/03/18 06:50:31;;;;;;;10.40;4.10;;;31.20;96.40;;;;;;5028789;28;20025;-59
2023/03/18 06:52:59;;;;;;;11.27;4.63;;;31.10;97.50;;;;;;5018620;28;20018;-58
2023/03/18 06:55:27;;;;;;;9.27;4.13;;;31.00;99.20;;;;;;5030292;28;20026;-59
2023/03/18 06:57:56;;;;;;;13.88;3.85;;;30.90;99.10;;;;;;5027544;28;20338;-57
2023/03/18 07:00:24;;;;;;;11.77;4.13;;;30.90;99.20;;;;;;5022911;28;20021;-58
2023/03/18 07:02:52;;;;;;;8.52;3.78;;;30.80;99.90;;;;;;5028788;28;20034;-58
2023/03/18 07:05:19;;;;;;;9.45;4.05;;;30.70;99.90;;;;;;5028789;28;20103;-58
2023/03/18 07:07:47;;;;;;;10.25;4.57;;;30.40;99.90;;;;;;5027740;28;20033;-58
2023/03/18 07:10:35;;;;;;;12.93;4.55;;;30.20;99.90;;;;;;5028122;28;20356;-59
2023/03/18 07:13:03;;;;;;;12.80;4.38;;;30.00;99.90;;;;;;5028607;28;20113;-58
2023/03/18 07:15:31;;;;;;;12.18;5.43;;;29.90;99.90;;;;;;5028400;28;20038;-58
2023/03/18 07:17:59;;;;;;;11.88;4.45;;;29.70;99.90;;;;;;5025327;28;20024;-57
2023/03/18 07:20:27;;;;;;;12.43;5.53;;;29.60;99.90;;;;;;5025819;28;20033;-58
2023/03/18 07:22:55;;;;;;;14.40;4.38;;;29.60;99.90;;;;;;5025588;28;20569;-56
2023/03/18 07:25:22;;;;;;;12.32;4.65;;;29.50;99.90;;;;;;5028374;28;20391;-56
2023/03/18 07:27:50;;;;;;;13.95;4.85;;;29.40;99.90;;;;;;5028076;28;20521;-59
2023/03/18 07:30:20;;;;;;;17.13;4.75;;;29.30;99.90;;;;;;5027276;28;20017;-59
2023/03/18 07:32:48;;;;;;;13.93;5.15;;;29.20;99.90;;;;;;5027313;28;20052;-60
2023/03/18 07:35:16;;;;;;;12.25;4.57;;;29.10;99.90;;;;;;5018102;28;20045;-57
2023/03/18 07:37:43;;;;;;;11.25;4.22;;;29.10;99.90;;;;;;5026729;28;20056;-57
2023/03/18 07:40:12;;;;;;;11.02;4.32;;;29.00;99.90;;;;;;5027629;28;20080;-59
2023/03/18 07:42:40;;;;;;;14.75;4.88;;;29.00;99.90;;;;;;5009993;28;20033;-60
2023/03/18 07:45:08;;;;;;;14.05;4.80;;;28.90;99.90;;;;;;5028334;28;20030;-60
2023/03/18 07:47:36;;;;;;;11.07;4.07;;;28.80;99.90;;;;;;5026423;28;20079;-58
2023/03/18 07:50:04;;;;;;;12.20;4.40;;;28.70;99.90;;;;;;5026768;28;20367;-59
2023/03/18 07:52:32;;;;;;;10.15;4.70;;;28.60;99.90;;;;;;5027201;28;20041;-58
2023/03/18 07:55:00;;;;;;;13.15;4.13;;;28.50;99.90;;;;;;5021588;28;20036;-59
2023/03/18 07:57:28;;;;;;;14.32;5.05;;;28.40;99.90;;;;;;5027729;28;20022;-60
2023/03/18 07:59:55;;;;;;;19.15;5.05;;;28.20;99.90;;;;;;5028370;28;20029;-60
2023/03/18 08:02:23;;;;;;;15.05;5.38;;;28.10;99.90;;;;;;5027591;28;20021;-60
2023/03/18 08:04:51;;;;;;;13.68;4.75;;;28.00;99.90;;;;;;5028082;28;20029;-59
2023/03/18 08:07:19;;;;;;;11.95;4.13;;;27.90;99.90;;;;;;5025774;28;20065;-60
2023/03/18 08:09:46;;;;;;;16.88;5.40;;;27.80;99.90;;;;;;5028250;28;20028;-60
2023/03/18 08:12:15;;;;;;;20.02;4.43;;;27.70;99.90;;;;;;5019943;28;20028;-60
2023/03/18 08:14:42;;;;;;;12.38;4.75;;;27.60;99.90;;;;;;5028565;28;20021;-59
2023/03/18 08:17:10;;;;;;;12.38;4.47;;;27.50;99.90;;;;;;5028595;28;20431;-58
2023/03/18 08:19:40;;;;;;;16.25;5.15;;;27.40;99.90;;;;;;5026213;28;20017;-59
2023/03/18 08:22:08;;;;;;;13.45;4.20;;;27.30;99.90;;;;;;5028158;28;20024;-60
2023/03/18 08:24:37;;;;;;;13.65;5.97;;;27.20;99.90;;;;;;5028557;28;20033;-59
2023/03/18 08:27:06;;;;;;;17.20;4.88;;;27.10;99.90;;;;;;5029452;28;20037;-60
2023/03/18 08:29:33;;;;;;;12.70;4.90;;;27.00;99.90;;;;;;5028523;28;20403;-60
2023/03/18 08:32:01;;;;;;;16.58;4.43;;;27.00;99.90;;;;;;5028758;28;20025;-59
2023/03/18 08:34:28;;;;;;;18.02;6.13;;;26.80;99.90;;;;;;5028345;28;20030;-59
2023/03/18 08:36:55;;;;;;;16.80;5.45;;;26.70;99.90;;;;;;5028706;28;20511;-59
2023/03/18 08:39:23;;;;;;;19.08;5.63;;;26.60;99.90;;;;;;5030483;28;20032;-59
2023/03/18 08:41:50;;;;;;;14.07;5.35;;;26.50;99.90;;;;;;5032257;28;20021;-59
2023/03/18 08:44:18;;;;;;;17.15;5.18;;;26.50;99.90;;;;;;5029252;28;20171;-60
2023/03/18 08:46:45;;;;;;;20.10;6.05;;;26.40;99.90;;;;;;5031486;28;20140;-59
2023/03/18 08:49:13;;;;;;;24.10;6.22;;;26.30;99.90;;;;;;5032000;28;20021;-60
2023/03/18 08:51:40;;;;;;;17.60;5.78;;;26.20;99.90;;;;;;5032065;28;20444;-59
2023/03/18 08:54:08;;;;;;;20.42;6.30;;;26.00;99.90;;;;;;5031079;28;20026;-61
2023/03/18 08:56:37;;;;;;;14.20;5.28;;;26.00;99.90;;;;;;5032637;28;20390;-59
2023/03/18 08:59:04;;;;;;;25.38;7.10;;;26.00;99.90;;;;;;5032531;28;20036;-59
2023/03/18 09:01:31;;;;;;;15.20;5.47;;;26.00;99.90;;;;;;5031893;28;20441;-59
2023/03/18 09:03:59;;;;;;;18.52;5.95;;;25.90;99.90;;;;;;5031326;28;20360;-58
2023/03/18 09:06:28;;;;;;;21.83;6.25;;;25.90;99.90;;;;;;5031219;28;20072;-58
2023/03/18 09:08:56;;;;;;;11.95;6.00;;;25.80;99.90;;;;;;5031726;28;20036;-59
2023/03/18 09:11:24;;;;;;;19.95;6.97;;;25.80;99.90;;;;;;5030242;28;20112;-60
2023/03/18 09:13:55;;;;;;;14.60;6.38;;;25.70;99.90;;;;;;5031682;28;20082;-59
2023/03/18 09:16:23;;;;;;;16.63;6.75;;;25.50;99.90;;;;;;5031756;28;20531;-59
2023/03/18 09:18:53;;;;;;;18.48;6.57;;;25.30;99.90;;;;;;5031298;28;20064;-60
2023/03/18 09:21:21;;;;;;;19.50;6.95;;;25.20;99.90;;;;;;5030242;28;20371;-59
2023/03/18 09:23:49;;;;;;;24.40;6.18;;;25.10;99.90;;;;;;5031576;28;20961;-59
2023/03/18 09:26:16;;;;;;;17.50;5.78;;;25.10;99.90;;;;;;5031480;28;20402;-60
2023/03/18 09:28:44;;;;;;;16.20;6.88;;;25.00;99.90;;;;;;5031422;28;20021;-58
2023/03/18 09:31:12;;;;;;;18.02;6.35;;;25.00;99.90;;;;;;5031074;28;20030;-59
2023/03/18 09:33:40;;;;;;;20.02;6.63;;;24.90;99.90;;;;;;5030913;28;20101;-59
2023/03/18 09:36:08;;;;;;;20.40;6.35;;;24.80;99.90;;;;;;5031552;28;20017;-59
2023/03/18 09:38:36;;;;;;;19.85;6.78;;;24.70;99.90;;;;;;5031616;28;20029;-59
2023/03/18 09:41:10;;;;;;;14.35;5.80;;;24.60;99.90;;;;;;5031679;28;20108;-58
2023/03/18 09:43:56;;;;;;;14.10;5.80;;;24.60;99.90;;;;;;5031458;28;20025;-59
2023/03/18 09:46:44;;;;;;;16.65;6.53;;;24.50;99.90;;;;;;5030467;28;20121;-59
2023/03/18 09:49:15;;;;;;;17.65;6.47;;;24.30;99.90;;;;;;5029551;28;20029;-59
2023/03/18 09:51:52;;;;;;;18.95;7.93;;;24.20;99.90;;;;;;5029619;28;20052;-59
2023/03/18 09:54:39;;;;;;;13.70;6.53;;;24.10;99.90;;;;;;5018699;28;20033;-58
2023/03/18 09:57:21;;;;;;;18.85;8.07;;;24.00;99.90;;;;;;5015677;28;20029;-60
2023/03/18 09:59:59;;;;;;;16.88;7.50;;;23.90;99.90;;;;;;5026673;28;20017;-59
2023/03/18 10:02:55;;;;;;;14.65;6.88;;;23.80;99.90;;;;;;5025165;28;20514;-59
2023/03/18 10:05:47;;;;;;;19.17;6.25;;;23.80;99.90;;;;;;5007377;28;20048;-59
2023/03/18 10:08:42;;;;;;;20.75;7.32;;;23.60;99.90;;;;;;5021320;28;20045;-59
2023/03/18 10:11:35;;;;;;;18.13;7.30;;;23.60;99.90;;;;;;5028080;28;20021;-61
2023/03/18 10:14:27;;;;;;;24.30;8.10;;;23.60;99.90;;;;;;5025252;28;20129;-62
2023/03/18 10:17:19;;;;;;;22.02;7.45;;;23.60;99.90;;;;;;5028001;28;20034;-62
2023/03/18 10:19:58;;;;;;;16.88;6.63;;;23.60;99.90;;;;;;5008801;28;20030;-62
2023/03/18 10:22:50;;;;;;;24.48;6.35;;;23.50;99.90;;;;;;5023285;28;20021;-61
2023/03/18 10:26:04;;;;;;;19.23;7.30;;;23.50;99.90;;;;;;5027523;28;20083;-62
2023/03/18 10:28:41;;;;;;;23.08;7.65;;;23.50;99.90;;;;;;5005538;28;20050;-61
2023/03/18 10:31:15;;;;;;;23.85;6.72;;;23.40;99.90;;;;;;5024051;28;20037;-62
2023/03/18 10:33:48;;;;;;;18.95;7.75;;;23.30;99.90;;;;;;5026293;28;20151;-62
2023/03/18 10:36:51;;;;;;;16.97;7.70;;;23.40;99.90;;;;;;5026616;28;20028;-62
2023/03/18 10:39:23;;;;;;;17.20;6.55;;;23.50;99.90;;;;;;5014964;28;20099;-62
2023/03/18 10:41:53;;;;;;;21.92;6.65;;;23.50;99.90;;;;;;5023692;28;20539;-61
2023/03/18 10:44:29;;;;;;;18.08;6.70;;;23.40;99.90;;;;;;5023450;28;20029;-61
2023/03/18 10:47:24;;;;;;;20.58;6.18;;;23.30;99.90;;;;;;5024974;28;20033;-61
2023/03/18 10:50:37;;;;;;;14.30;6.15;;;23.20;99.90;;;;;;5026047;28;20060;-61
2023/03/18 10:53:19;;;;;;;22.95;7.10;;;23.20;99.90;;;;;;4970357;28;20039;-61
2023/03/18 10:56:08;;;;;;;18.98;6.18;;;23.10;99.90;;;;;;5020400;28;20557;-61
2023/03/18 10:58:37;;;;;;;18.88;6.53;;;23.10;99.90;;;;;;5008322;28;20040;-61
2023/03/18 11:01:10;;;;;;;21.83;7.18;;;23.00;99.90;;;;;;5019711;28;20248;-62
2023/03/18 11:04:04;;;;;;;20.30;7.63;;;22.90;99.90;;;;;;5025353;28;20021;-62
2023/03/18 11:06:56;;;;;;;18.07;6.73;;;22.80;99.90;;;;;;5027381;28;20053;-62
2023/03/18 11:09:31;;;;;;;19.25;8.32;;;22.70;99.90;;;;;;5023203;28;20485;-62
2023/03/18 11:12:17;;;;;;;22.90;7.85;;;22.80;99.90;;;;;;5025248;28;20040;-62
2023/03/18 11:14:53;;;;;;;21.23;7.30;;;22.80;99.90;;;;;;5028897;28;20052;-61
2023/03/18 11:17:29;;;;;;;21.25;7.05;;;22.80;99.90;;;;;;5026279;28;20033;-62
2023/03/18 11:20:24;;;;;;;20.60;6.72;;;22.90;99.90;;;;;;5007658;28;20030;-61
2023/03/18 11:22:55;;;;;;;28.77;8.15;;;22.80;99.90;;;;;;5023154;28;20064;-62
2023/03/18 11:25:29;;;;;;;14.55;6.72;;;22.60;99.90;;;;;;5023921;28;20464;-62
2023/03/18 11:28:04;;;;;;;17.25;7.18;;;22.50;99.90;;;;;;5026727;28;20635;-61
2023/03/18 11:30:48;;;;;;;14.38;7.13;;;22.40;99.90;;;;;;5027511;28;20052;-62
2023/03/18 11:33:17;;;;;;;21.70;6.78;;;22.30;99.90;;;;;;5024377;28;20116;-62
2023/03/18 11:36:19;;;;;;;25.15;7.53;;;22.30;99.90;;;;;;5026521;28;20092;-62
2023/03/18 11:38:58;;;;;;;22.17;7.68;;;22.20;99.90;;;;;;5004291;28;20045;-63
2023/03/18 11:41:28;;;;;;;19.85;8.07;;;22.20;99.90;;;;;;5024314;28;20017;-62
2023/03/18 11:43:59;;;;;;;24.27;8.93;;;22.20;99.90;;;;;;5025180;28;20603;-59
2023/03/18 11:46:38;;;;;;;17.30;8.75;;;22.20;99.90;;;;;;5024547;28;20029;-59
2023/03/18 11:49:09;;;;;;;21.33;7.50;;;22.20;99.90;;;;;;5023622;28;20044;-59
2023/03/18 11:51:49;;;;;;;19.27;8.07;;;22.10;99.90;;;;;;5026080;28;20498;-64
2023/03/18 11:54:23;;;;;;;25.73;7.43;;;22.00;99.90;;;;;;5026598;28;20570;-58
2023/03/18 11:57:08;;;;;;;18.93;7.03;;;21.90;99.90;;;;;;5025774;28;20037;-59
2023/03/18 12:00:07;;;;;;;22.48;8.18;;;21.90;99.90;;;;;;5019852;28;20270;-59
2023/03/18 12:03:04;;;;;;;22.48;8.90;;;22.00;99.90;;;;;;5025038;28;20026;-60
2023/03/18 12:05:50;;;;;;;22.23;8.93;;;22.10;99.90;;;;;;5019051;28;20132;-58
2023/03/18 12:08:25;;;;;;;20.63;7.72;;;22.20;99.90;;;;;;5023472;28;20041;-58
2023/03/18 12:11:04;;;;;;;22.40;8.20;;;22.20;99.90;;;;;;5024081;28;20482;-59
2023/03/18 12:13:52;;;;;;;23.98;7.95;;;22.20;99.90;;;;;;5015051;28;20033;-58
2023/03/18 12:16:29;;;;;;;21.20;8.85;;;22.10;99.90;;;;;;5012940;28;20033;-58
2023/03/18 12:19:04;;;;;;;32.13;9.45;;;22.10;99.90;;;;;;5010952;28;20026;-58
2023/03/18 12:22:16;;;;;;;27.15;8.50;;;21.90;99.90;;;;;;5011056;28;20033;-58
2023/03/18 12:25:12;;;;;;;15.63;7.95;;;21.80;99.90;;;;;;5007206;28;20084;-60
2023/03/18 12:27:40;;;;;;;24.65;10.10;;;21.70;99.90;;;;;;5025922;28;20481;-58
2023/03/18 12:30:14;;;;;;;29.45;9.93;;;21.70;99.90;;;;;;5021977;28;20060;-59
2023/03/18 12:33:22;;;;;;;32.97;9.00;;;21.70;99.90;;;;;;5029852;28;20029;-58
2023/03/18 12:36:12;;;;;;;23.00;7.90;;;21.70;99.90;;;;;;5020506;28;20068;-58
2023/03/18 12:39:17;;;;;;;19.48;7.85;;;21.60;99.90;;;;;;5011682;28;20034;-58
2023/03/18 12:42:01;;;;;;;21.30;7.95;;;21.60;99.90;;;;;;5020270;28;20028;-58
2023/03/18 12:44:28;;;;;;;18.23;8.57;;;21.50;99.90;;;;;;5027357;28;20109;-58
2023/03/18 12:47:36;;;;;;;17.23;7.47;;;21.40;99.90;;;;;;5023729;28;20040;-58
2023/03/18 12:50:15;;;;;;;26.40;8.02;;;21.40;99.90;;;;;;5028137;28;20058;-58
2023/03/18 12:53:16;;;;;;;18.25;7.03;;;21.30;99.90;;;;;;5013527;28;20021;-58
2023/03/18 12:55:54;;;;;;;19.27;6.90;;;21.20;99.90;;;;;;5021573;28;20733;-58
2023/03/18 12:58:30;;;;;;;20.73;8.23;;;21.10;99.90;;;;;;5018178;28;20208;-58
2023/03/18 13:01:16;;;;;;;26.25;8.43;;;21.10;99.90;;;;;;5026101;28;20030;-60
2023/03/18 13:04:00;;;;;;;28.55;9.68;;;21.10;99.90;;;;;;5022487;28;20030;-63
2023/03/18 13:06:50;;;;;;;24.55;10.00;;;21.10;99.90;;;;;;5022357;28;20059;-63
2023/03/18 13:09:43;;;;;;;30.00;10.35;;;21.20;99.90;;;;;;5027252;28;20024;-63